KGUL

Gunnison

Gunnison, Texas, USA
METAR KGUL 170755Z AUTO 08010KT 10SM BKN025 OVC029 16/11 A3024 RMK A01
Observed Flight Rules
Dec-17 @ 07:55 UTC (18 minutes ago) Marginal Visual Flight Rules
Wind Visibility Clouds
80° at 10 knots 10 miles
  • Broken at 2,500' AGL
  • Overcast at 2,900' AGL
Temperatures Readings
Current 16°C / 61°F
Dewpoint 11°C / 52°F
Humidity 72%
Altimeter 30.24" Hg
Pressure 1024 hPa
Elevation 30
METAR KGUL 170755Z AUTO 08010KT 10SM BKN025 OVC029 16/11 A3024 RMK A01
Observed Flight Rules
Dec-17 @ 07:55 UTC
(18 minutes ago)
MVFR
Wind Visibility
80° at 10 knots 10 miles
Clouds
  • Broken at 2,500' AGL
  • Overcast at 2,900' AGL
Temperature Dewpoint
16°C / 61°F 11°C / 52°F
Humidity Altimeter Pressure
72% 30.24" Hg 1024 hPa